createdAt,value
2018-09-21T00:00:48.726Z,67.46
2018-09-21T00:03:18.062Z,66.99
2018-09-21T00:05:47.744Z,67.46
2018-09-21T00:08:17.386Z,67.20
2018-09-21T00:10:47.066Z,67.67
2018-09-21T00:13:16.721Z,68.11
2018-09-21T00:15:46.459Z,68.00
2018-09-21T00:18:16.142Z,68.26
2018-09-21T00:20:45.921Z,68.62
2018-09-21T00:23:15.715Z,68.65
2018-09-21T00:25:45.459Z,68.45
2018-09-21T00:28:15.162Z,68.45
2018-09-21T00:30:44.820Z,68.88
2018-09-21T00:33:14.537Z,68.88
2018-09-21T00:35:44.306Z,69.52
2018-09-21T00:38:14.027Z,68.81
2018-09-21T00:40:43.840Z,69.04
2018-09-21T00:43:13.828Z,69.35
2018-09-21T00:45:43.525Z,69.61
2018-09-21T00:48:13.353Z,69.24
2018-09-21T00:50:43.068Z,69.23
2018-09-21T00:53:12.816Z,70.09
2018-09-21T00:55:42.217Z,69.42
2018-09-21T00:58:11.941Z,69.77
2018-09-21T01:00:42.571Z,69.67
2018-09-21T01:03:12.324Z,70.15
2018-09-21T01:05:42.035Z,70.08
2018-09-21T01:08:11.793Z,69.94
2018-09-21T01:10:41.485Z,69.97
2018-09-21T01:13:11.205Z,69.72
2018-09-21T01:15:40.961Z,70.48
2018-09-21T01:18:10.687Z,70.39
2018-09-21T01:20:40.375Z,70.21
2018-09-21T01:23:10.201Z,70.24
2018-09-21T01:25:39.930Z,69.97
2018-09-21T01:28:09.685Z,70.07
2018-09-21T01:30:39.472Z,70.51
2018-09-21T01:33:09.308Z,70.40
2018-09-21T01:35:39.157Z,70.28
2018-09-21T01:38:08.905Z,69.89
2018-09-21T01:40:38.677Z,70.01
2018-09-21T01:43:08.409Z,69.83
2018-09-21T01:45:38.179Z,70.42
2018-09-21T01:48:07.918Z,69.94
2018-09-21T01:50:37.739Z,70.36
2018-09-21T01:53:07.590Z,70.17
2018-09-21T01:55:36.977Z,70.18
2018-09-21T01:58:06.809Z,70.14
2018-09-21T02:00:36.725Z,70.27
2018-09-21T02:03:06.525Z,70.37
2018-09-21T02:05:36.308Z,70.47
2018-09-21T02:08:06.012Z,69.65
2018-09-21T02:10:35.753Z,70.05
2018-09-21T02:13:05.601Z,69.69
2018-09-21T02:15:35.313Z,70.06
2018-09-21T02:18:05.096Z,70.00
2018-09-21T02:20:34.779Z,69.91
2018-09-21T02:23:04.472Z,70.01
2018-09-21T02:25:34.120Z,70.05
2018-09-21T02:28:03.852Z,70.26
2018-09-21T02:30:33.549Z,70.51
2018-09-21T02:33:03.295Z,70.67
2018-09-21T02:35:33.059Z,70.55
2018-09-21T02:38:02.856Z,70.78
2018-09-21T02:40:32.571Z,70.65
2018-09-21T02:43:02.325Z,70.15
2018-09-21T02:45:32.035Z,70.42
2018-09-21T02:48:01.729Z,70.30
2018-09-21T02:50:31.481Z,70.31
2018-09-21T02:53:01.167Z,70.14
2018-09-21T02:55:30.904Z,70.75
2018-09-21T02:58:00.583Z,70.87
2018-09-21T03:00:30.449Z,70.35
2018-09-21T03:03:00.141Z,70.66
2018-09-21T03:05:29.892Z,70.59
2018-09-21T03:07:59.562Z,70.82
2018-09-21T03:10:29.200Z,70.25
2018-09-21T03:12:58.971Z,69.99
2018-09-21T03:15:28.661Z,69.89
2018-09-21T03:17:58.336Z,69.66
2018-09-21T03:20:27.757Z,69.86
2018-09-21T03:22:57.488Z,69.71
2018-09-21T03:25:27.260Z,69.66
2018-09-21T03:27:56.936Z,69.71
2018-09-21T03:30:26.701Z,70.30
2018-09-21T03:32:56.377Z,70.01
2018-09-21T03:35:26.100Z,69.76
2018-09-21T03:37:55.821Z,69.81
2018-09-21T03:40:25.622Z,69.94
2018-09-21T03:42:55.353Z,70.38
2018-09-21T03:45:25.114Z,70.42
2018-09-21T03:47:54.884Z,70.27
2018-09-21T03:50:24.615Z,70.46
2018-09-21T03:52:54.360Z,70.27
2018-09-21T03:55:24.052Z,70.55
2018-09-21T03:57:53.719Z,70.14
2018-09-21T04:00:23.540Z,70.11
2018-09-21T04:02:53.500Z,70.01
2018-09-21T04:05:23.210Z,70.57
2018-09-21T04:07:53.637Z,70.29
2018-09-21T04:10:25.811Z,70.89
2018-09-21T04:12:55.918Z,70.83
2018-09-21T04:15:26.071Z,70.65
2018-09-21T04:17:55.759Z,71.22
2018-09-21T04:20:25.478Z,71.26
2018-09-21T04:23:02.062Z,71.23
2018-09-21T04:25:32.577Z,70.57
2018-09-21T04:28:03.238Z,70.44
2018-09-21T04:30:33.148Z,70.84
2018-09-21T04:33:03.237Z,70.35
2018-09-21T04:35:33.099Z,70.20
2018-09-21T04:38:02.783Z,70.22
2018-09-21T04:40:32.514Z,69.75
2018-09-21T04:43:02.209Z,69.48
2018-09-21T04:45:32.003Z,68.75
2018-09-21T04:48:02.043Z,67.54
2018-09-21T04:50:31.888Z,67.21
2018-09-21T04:53:01.621Z,67.16
2018-09-21T04:55:31.359Z,66.44
2018-09-21T04:58:01.107Z,65.47
2018-09-21T05:00:30.798Z,65.83
2018-09-21T05:03:00.603Z,64.58
2018-09-21T05:05:30.339Z,64.63
2018-09-21T05:08:00.163Z,63.20
2018-09-21T05:10:29.979Z,62.96
2018-09-21T05:12:59.733Z,62.31
2018-09-21T05:15:29.179Z,62.56
2018-09-21T05:17:58.529Z,62.89
2018-09-21T05:20:28.371Z,61.95
2018-09-21T05:22:58.075Z,61.66
2018-09-21T05:25:27.803Z,61.25
2018-09-21T05:27:57.569Z,60.21
2018-09-21T05:30:27.333Z,59.98
2018-09-21T05:32:57.035Z,59.19
2018-09-21T05:35:26.775Z,58.99
2018-09-21T05:37:56.454Z,57.99
2018-09-21T05:40:26.275Z,57.65
2018-09-21T05:42:56.079Z,58.07
2018-09-21T05:45:25.898Z,58.31
2018-09-21T05:47:55.845Z,58.44
2018-09-21T05:50:25.278Z,58.37
2018-09-21T05:52:55.939Z,58.07
2018-09-21T05:55:25.991Z,58.21
2018-09-21T05:57:55.729Z,58.67
2018-09-21T06:00:25.553Z,58.39
2018-09-21T06:02:55.490Z,58.67
2018-09-21T06:05:25.223Z,58.18
2018-09-21T06:07:55.495Z,58.16
2018-09-21T06:10:25.275Z,58.32
2018-09-21T06:12:55.103Z,57.64
2018-09-21T06:15:24.875Z,57.91
2018-09-21T06:17:54.730Z,56.97
2018-09-21T06:20:24.495Z,57.10
2018-09-21T06:22:54.407Z,56.81
2018-09-21T06:25:24.399Z,56.16
2018-09-21T06:27:54.638Z,56.07
2018-09-21T06:30:24.389Z,56.29
2018-09-21T06:32:54.598Z,55.88
2018-09-21T06:35:24.573Z,55.88
2018-09-21T06:37:54.325Z,56.02
2018-09-21T06:40:24.364Z,55.62
2018-09-21T06:42:54.234Z,55.80
2018-09-21T06:45:24.533Z,55.32
2018-09-21T06:47:54.726Z,55.17
2018-09-21T06:50:24.495Z,54.72
2018-09-21T06:52:54.262Z,54.01
2018-09-21T06:55:24.158Z,54.05
2018-09-21T06:57:53.981Z,54.23
2018-09-21T07:00:23.920Z,53.99
2018-09-21T07:02:53.971Z,53.32
2018-09-21T07:05:23.939Z,53.17
2018-09-21T07:07:54.030Z,52.82
2018-09-21T07:10:23.822Z,52.04
2018-09-21T07:12:53.600Z,51.57
2018-09-21T07:15:23.343Z,51.42
2018-09-21T07:17:53.094Z,51.77
2018-09-21T07:20:22.836Z,51.29
2018-09-21T07:22:52.619Z,51.39
2018-09-21T07:25:22.330Z,50.82
2018-09-21T07:27:52.086Z,50.70
2018-09-21T07:30:21.878Z,50.33
2018-09-21T07:32:51.634Z,50.41
2018-09-21T07:35:21.385Z,50.29
2018-09-21T07:37:51.043Z,50.28
2018-09-21T07:40:20.798Z,49.37
2018-09-21T07:42:50.576Z,49.46
2018-09-21T07:45:20.304Z,49.49
2018-09-21T07:47:50.016Z,49.27
2018-09-21T07:50:19.808Z,49.63
2018-09-21T07:52:49.638Z,49.27
2018-09-21T07:55:19.390Z,48.32
2018-09-21T07:57:49.174Z,48.56
2018-09-21T08:00:18.626Z,47.81
2018-09-21T08:02:48.320Z,47.25
2018-09-21T08:05:22.091Z,47.40
2018-09-21T08:07:51.826Z,46.59
2018-09-21T08:10:21.664Z,45.80
2018-09-21T08:12:51.454Z,44.87
2018-09-21T08:15:21.152Z,44.68
2018-09-21T08:17:50.921Z,44.69
2018-09-21T08:20:20.702Z,43.84
2018-09-21T08:22:50.496Z,44.15
2018-09-21T08:25:20.270Z,44.57
2018-09-21T08:27:50.091Z,44.41
2018-09-21T08:30:19.833Z,44.65
2018-09-21T08:32:49.870Z,45.59
2018-09-21T08:35:19.620Z,45.79
2018-09-21T08:37:49.370Z,45.85
2018-09-21T08:40:19.122Z,45.87
2018-09-21T08:42:48.840Z,46.12
2018-09-21T08:45:18.541Z,46.58
2018-09-21T08:47:48.258Z,46.19
2018-09-21T08:50:17.998Z,47.07
2018-09-21T08:52:47.724Z,46.79
2018-09-21T08:55:17.438Z,46.38
2018-09-21T08:57:47.146Z,46.77
2018-09-21T09:00:16.900Z,46.61
2018-09-21T09:02:46.704Z,46.23
2018-09-21T09:05:16.483Z,45.78
2018-09-21T09:07:46.231Z,45.42
2018-09-21T09:10:15.953Z,45.14
2018-09-21T09:12:45.686Z,45.19
2018-09-21T09:15:15.478Z,45.46
2018-09-21T09:17:45.305Z,44.74
2018-09-21T09:20:15.098Z,44.23
2018-09-21T09:22:45.733Z,43.90
2018-09-21T09:25:15.523Z,43.86
2018-09-21T09:27:45.313Z,43.33
2018-09-21T09:30:15.089Z,43.04
2018-09-21T09:32:44.898Z,43.38
2018-09-21T09:35:14.349Z,42.57
2018-09-21T09:37:44.125Z,42.34
2018-09-21T09:40:14.060Z,41.76
2018-09-21T09:42:43.836Z,41.15
2018-09-21T09:45:13.590Z,40.66
2018-09-21T09:47:43.423Z,40.15
2018-09-21T09:50:13.660Z,40.09
2018-09-21T09:52:43.809Z,39.81
2018-09-21T09:55:13.612Z,38.79
2018-09-21T09:57:43.295Z,38.62
2018-09-21T10:00:13.184Z,37.01
2018-09-21T10:02:43.436Z,37.19
2018-09-21T10:05:13.176Z,37.56
2018-09-21T10:07:42.918Z,37.08
2018-09-21T10:10:12.739Z,37.18
2018-09-21T10:12:43.282Z,37.27
2018-09-21T10:15:12.695Z,37.02
2018-09-21T10:17:42.429Z,37.00
2018-09-21T10:20:12.193Z,37.57
2018-09-21T10:22:41.891Z,37.78
2018-09-21T10:25:11.625Z,37.37
2018-09-21T10:27:41.556Z,37.13
2018-09-21T10:30:11.097Z,37.25
2018-09-21T10:32:40.766Z,36.91
2018-09-21T10:35:10.621Z,37.20
2018-09-21T10:37:40.348Z,36.95
2018-09-21T10:40:10.318Z,37.27
2018-09-21T10:42:39.965Z,37.12
2018-09-21T10:45:09.858Z,36.91
2018-09-21T10:47:39.580Z,36.33
2018-09-21T10:50:09.362Z,36.36
2018-09-21T10:52:39.044Z,36.29
2018-09-21T10:55:08.789Z,36.21
2018-09-21T10:57:38.724Z,35.39
2018-09-21T11:00:10.014Z,34.24
2018-09-21T11:02:39.929Z,33.68
2018-09-21T11:05:09.763Z,33.34
2018-09-21T11:07:39.526Z,32.60
2018-09-21T11:10:09.292Z,32.30
2018-09-21T11:12:39.124Z,31.64
2018-09-21T11:15:09.973Z,32.83
2018-09-21T11:17:39.756Z,31.51
2018-09-21T11:20:09.522Z,30.63
2018-09-21T11:22:39.265Z,31.93
2018-09-21T11:25:09.087Z,32.56
2018-09-21T11:27:38.890Z,32.32
2018-09-21T11:30:08.753Z,33.04
2018-09-21T11:32:38.455Z,33.53
2018-09-21T11:35:08.225Z,32.93
2018-09-21T11:37:38.020Z,33.35
2018-09-21T11:40:07.848Z,32.56
2018-09-21T11:42:37.600Z,32.78
2018-09-21T11:45:08.361Z,32.10
2018-09-21T11:47:38.209Z,31.25
2018-09-21T11:50:07.914Z,31.26
2018-09-21T11:52:37.643Z,31.95
2018-09-21T11:55:07.436Z,31.88
2018-09-21T11:57:37.175Z,31.53
2018-09-21T12:00:07.117Z,32.70
2018-09-21T12:02:36.914Z,33.11
2018-09-21T12:05:06.861Z,34.47
2018-09-21T12:07:36.688Z,34.39
2018-09-21T12:10:07.994Z,34.63
2018-09-21T12:12:37.978Z,34.28
2018-09-21T12:15:08.262Z,34.82
2018-09-21T12:17:38.256Z,34.31
2018-09-21T12:20:08.084Z,34.29
2018-09-21T12:22:37.823Z,33.96
2018-09-21T12:25:07.615Z,34.23
2018-09-21T12:27:37.359Z,34.62
2018-09-21T12:30:08.465Z,34.53
2018-09-21T12:32:38.248Z,34.61
2018-09-21T12:35:08.060Z,34.42
2018-09-21T12:37:38.481Z,35.61
2018-09-21T12:40:08.256Z,35.08
2018-09-21T12:42:37.971Z,34.92
2018-09-21T12:45:07.898Z,35.37
2018-09-21T12:47:37.823Z,35.52
2018-09-21T12:50:08.250Z,34.17
2018-09-21T12:52:39.954Z,33.52
2018-09-21T12:55:09.726Z,32.77
2018-09-21T12:57:40.564Z,32.50
2018-09-21T13:00:11.138Z,31.65
2018-09-21T13:02:41.250Z,31.47
2018-09-21T13:05:11.422Z,32.43
2018-09-21T13:07:41.240Z,32.59
2018-09-21T13:10:11.584Z,32.38
2018-09-21T13:12:41.350Z,32.23
2018-09-21T13:15:11.192Z,31.07
2018-09-21T13:17:41.074Z,31.89
2018-09-21T13:20:10.992Z,30.56
2018-09-21T13:22:41.421Z,29.70
2018-09-21T13:25:11.727Z,29.41
2018-09-21T13:27:42.495Z,29.00
2018-09-21T13:30:12.352Z,30.25
2018-09-21T13:32:42.361Z,30.62
2018-09-21T13:35:13.131Z,30.53
2018-09-21T13:37:43.574Z,31.65
2018-09-21T13:40:13.986Z,31.05
2018-09-21T13:42:44.016Z,31.36
2018-09-21T13:45:14.199Z,31.79
2018-09-21T13:47:44.487Z,31.76
2018-09-21T13:50:14.660Z,31.32
2018-09-21T13:52:44.534Z,31.46
2018-09-21T13:55:14.314Z,30.77
2018-09-21T13:57:44.113Z,30.75
2018-09-21T14:00:13.866Z,30.26
2018-09-21T14:02:44.057Z,29.08
2018-09-21T14:05:13.819Z,28.51
2018-09-21T14:07:43.715Z,29.21
2018-09-21T14:10:13.912Z,29.03
2018-09-21T14:12:44.443Z,29.53
2018-09-21T14:15:14.208Z,29.89
2018-09-21T14:17:43.652Z,30.69
2018-09-21T14:20:13.604Z,30.75
2018-09-21T14:22:43.315Z,31.56
2018-09-21T14:25:13.233Z,30.80
2018-09-21T14:27:43.014Z,31.62
2018-09-21T14:30:12.843Z,30.86
2018-09-21T14:32:42.658Z,31.86
2018-09-21T14:35:12.579Z,32.15
2018-09-21T14:37:42.358Z,32.30
2018-09-21T14:40:12.238Z,34.23
2018-09-21T14:42:42.097Z,33.19
2018-09-21T14:45:11.984Z,33.16
2018-09-21T14:47:41.888Z,33.33
2018-09-21T14:50:11.757Z,32.53
2018-09-21T14:52:41.709Z,33.65
2018-09-21T14:55:11.443Z,33.68
2018-09-21T14:57:41.262Z,33.26
2018-09-21T15:00:11.073Z,32.59
2018-09-21T15:02:40.836Z,32.19
2018-09-21T15:05:10.634Z,32.83
2018-09-21T15:07:40.605Z,33.71
2018-09-21T15:10:10.342Z,34.07
2018-09-21T15:12:40.207Z,34.39
2018-09-21T15:15:10.027Z,34.41
2018-09-21T15:17:39.849Z,33.84
2018-09-21T15:20:09.957Z,33.87
2018-09-21T15:22:39.891Z,33.68
2018-09-21T15:25:09.643Z,34.07
2018-09-21T15:27:39.489Z,34.64
2018-09-21T15:30:09.221Z,34.67
2018-09-21T15:32:40.141Z,35.04
2018-09-21T15:35:10.254Z,34.91
2018-09-21T15:37:40.059Z,35.58
2018-09-21T15:40:09.923Z,35.28
2018-09-21T15:42:39.855Z,35.01
2018-09-21T15:45:09.850Z,35.67
2018-09-21T15:47:39.557Z,35.95
2018-09-21T15:50:10.292Z,35.82
2018-09-21T15:52:41.367Z,36.59
2018-09-21T15:55:11.288Z,36.79
2018-09-21T15:57:41.267Z,36.96
2018-09-21T16:00:11.680Z,37.43
2018-09-21T16:02:41.957Z,37.58
2018-09-21T16:05:11.349Z,37.78
2018-09-21T16:07:40.819Z,37.28
2018-09-21T16:10:10.659Z,37.21
2018-09-21T16:12:40.071Z,37.56
2018-09-21T16:15:09.587Z,40.32
2018-09-21T16:17:39.410Z,46.90
2018-09-21T16:20:09.138Z,52.29
2018-09-21T16:22:39.587Z,55.94
2018-09-21T16:25:09.786Z,59.97
2018-09-21T16:27:39.578Z,63.00
2018-09-21T16:30:10.437Z,64.06
2018-09-21T16:32:40.715Z,66.43
2018-09-21T16:35:11.078Z,68.14
2018-09-21T16:37:40.810Z,69.50
2018-09-21T16:40:10.652Z,67.28
2018-09-21T16:42:40.052Z,69.88
2018-09-21T16:45:10.119Z,68.45
2018-09-21T16:47:39.954Z,69.15
2018-09-21T16:50:09.914Z,67.09
2018-09-21T16:52:40.220Z,67.29
2018-09-21T16:55:09.926Z,65.96
2018-09-21T16:57:39.879Z,65.53
2018-09-21T17:00:15.826Z,65.40
2018-09-21T17:02:46.150Z,65.13
2018-09-21T17:05:15.836Z,65.89
2018-09-21T17:07:45.708Z,67.22
2018-09-21T17:10:15.706Z,67.22
2018-09-21T17:12:45.244Z,66.81
2018-09-21T17:15:21.494Z,66.77
2018-09-21T17:17:51.537Z,66.61
2018-09-21T17:20:22.178Z,67.06
2018-09-21T17:22:53.526Z,66.57
2018-09-21T17:25:23.531Z,67.00
2018-09-21T17:27:54.390Z,66.75
2018-09-21T17:30:25.967Z,66.18
2018-09-21T17:32:57.282Z,67.77
2018-09-21T17:35:28.026Z,68.50
2018-09-21T17:37:58.124Z,68.99
2018-09-21T17:40:32.753Z,69.68
2018-09-21T17:43:04.578Z,70.56
2018-09-21T17:45:34.088Z,70.91
2018-09-21T17:48:03.723Z,71.27
2018-09-21T17:51:08.736Z,71.46
2018-09-21T17:53:39.944Z,70.79
2018-09-21T17:56:10.136Z,72.27
2018-09-21T17:58:40.663Z,72.28
2018-09-21T18:01:13.377Z,72.40
2018-09-21T18:03:49.012Z,72.37
2018-09-21T18:06:19.516Z,72.50
2018-09-21T18:08:50.657Z,71.41
2018-09-21T18:11:20.778Z,71.89
2018-09-21T18:13:51.725Z,72.62
2018-09-21T18:16:21.918Z,73.20
2018-09-21T18:18:53.194Z,72.67
2018-09-21T18:21:24.417Z,73.07
2018-09-21T18:23:58.447Z,73.15
2018-09-21T18:26:28.325Z,73.54
2018-09-21T18:28:58.413Z,72.93
2018-09-21T18:31:34.418Z,72.53
2018-09-21T18:34:05.265Z,72.67
2018-09-21T18:37:22.894Z,72.46
2018-09-21T18:39:53.934Z,73.24
2018-09-21T18:42:41.848Z,73.25
2018-09-21T18:45:14.805Z,73.60
2018-09-21T18:48:17.636Z,73.27
2018-09-21T18:50:49.078Z,73.24
2018-09-21T18:53:23.728Z,72.14
2018-09-21T18:55:57.376Z,72.81
2018-09-21T18:58:27.737Z,72.82
2018-09-21T19:00:57.675Z,74.57
2018-09-21T19:03:27.676Z,74.10
2018-09-21T19:05:57.610Z,74.08
2018-09-21T19:08:27.917Z,76.15
2018-09-21T19:10:58.873Z,75.46
2018-09-21T19:13:30.073Z,76.13
2018-09-21T19:16:03.604Z,76.48
2018-09-21T19:18:38.057Z,78.84
2018-09-21T19:21:08.195Z,78.04
2018-09-21T19:23:38.928Z,77.28
2018-09-21T19:26:18.474Z,77.77
2018-09-21T19:28:48.880Z,77.28
2018-09-21T19:31:19.589Z,78.10
2018-09-21T19:33:49.828Z,77.74
2018-09-21T19:36:20.928Z,78.64
2018-09-21T19:38:51.745Z,78.45
2018-09-21T19:41:21.844Z,78.37
2018-09-21T19:43:51.719Z,79.21
2018-09-21T19:46:22.164Z,79.32
2018-09-21T19:48:52.055Z,79.07
2018-09-21T19:51:23.253Z,78.69
2018-09-21T19:53:53.974Z,78.13
2018-09-21T19:56:25.715Z,78.76
2018-09-21T19:58:55.639Z,78.25
2018-09-21T20:04:11.431Z,79.85
2018-09-21T20:06:53.805Z,80.17
2018-09-21T20:09:24.956Z,79.25
2018-09-21T20:11:55.428Z,79.44
2018-09-21T20:14:26.033Z,78.98
2018-09-21T20:16:56.889Z,79.20
2018-09-21T20:19:28.100Z,78.80
2018-09-21T20:21:59.157Z,79.13
2018-09-21T20:24:28.600Z,78.71
2018-09-21T20:26:58.149Z,78.71
2018-09-21T20:29:28.133Z,78.64
2018-09-21T20:32:03.133Z,78.72
2018-09-21T20:34:33.001Z,77.81
2018-09-21T20:37:03.053Z,78.77
2018-09-21T20:39:33.498Z,78.18
2018-09-21T20:42:04.084Z,78.33
2018-09-21T20:44:35.208Z,79.55
2018-09-21T20:47:05.193Z,79.27
2018-09-21T20:49:34.708Z,79.86
2018-09-21T20:52:04.482Z,79.91
2018-09-21T20:54:34.248Z,80.20
2018-09-21T20:57:04.215Z,79.55
2018-09-21T20:59:34.080Z,80.21
2018-09-21T21:02:03.887Z,80.23
2018-09-21T21:04:33.312Z,80.06
2018-09-21T21:07:03.084Z,80.51
2018-09-21T21:09:32.930Z,80.74
2018-09-21T21:12:02.775Z,79.83
2018-09-21T21:14:32.258Z,79.73
2018-09-21T21:17:01.985Z,80.07
2018-09-21T21:19:31.852Z,80.32
2018-09-21T21:22:01.625Z,79.47
2018-09-21T21:24:31.375Z,79.25
2018-09-21T21:27:01.323Z,79.01
2018-09-21T21:29:31.072Z,78.79
2018-09-21T21:32:00.918Z,78.31
2018-09-21T21:34:30.688Z,78.61
2018-09-21T21:37:00.230Z,78.52
2018-09-21T21:39:29.965Z,78.04
2018-09-21T21:41:59.413Z,77.88
2018-09-21T21:44:28.710Z,77.19
2018-09-21T21:46:58.484Z,77.81
2018-09-21T21:49:28.219Z,78.23
2018-09-21T21:51:57.665Z,78.56
2018-09-21T21:54:27.435Z,79.39
2018-09-21T21:56:56.835Z,79.79
2018-09-21T21:59:26.575Z,79.89
2018-09-21T22:01:58.797Z,80.08
2018-09-21T22:04:28.200Z,80.10
2018-09-21T22:06:58.030Z,79.52
2018-09-21T22:09:27.783Z,79.90
2018-09-21T22:12:02.707Z,80.09
2018-09-21T22:14:32.092Z,80.00
2018-09-21T22:17:01.506Z,79.40
2018-09-21T22:19:31.166Z,78.58
2018-09-21T22:22:00.895Z,78.76
2018-09-21T22:24:30.631Z,79.23
2018-09-21T22:27:00.391Z,78.89
2018-09-21T22:29:30.102Z,79.15
2018-09-21T22:31:59.772Z,79.76
2018-09-21T22:34:29.509Z,80.64
2018-09-21T22:36:58.899Z,80.40
2018-09-21T22:39:28.655Z,80.18
2018-09-21T22:41:58.418Z,80.90
2018-09-21T22:44:27.779Z,80.84
2018-09-21T22:46:57.529Z,80.47
2018-09-21T22:49:26.956Z,79.69
2018-09-21T22:51:56.682Z,78.30
2018-09-21T22:54:26.418Z,78.64
2018-09-21T22:56:56.146Z,78.55
2018-09-21T22:59:25.479Z,78.58
2018-09-21T23:01:55.196Z,78.14
2018-09-21T23:04:24.893Z,77.96
2018-09-21T23:06:54.647Z,78.44
2018-09-21T23:09:24.018Z,78.25
2018-09-21T23:11:53.822Z,78.04
2018-09-21T23:14:23.638Z,78.39
2018-09-21T23:16:53.442Z,78.00
2018-09-21T23:19:23.204Z,77.15
2018-09-21T23:21:52.948Z,77.13
2018-09-21T23:24:22.679Z,76.95
2018-09-21T23:26:52.416Z,77.24
2018-09-21T23:29:22.204Z,77.67
2018-09-21T23:31:52.073Z,77.76
2018-09-21T23:34:21.830Z,77.90
2018-09-21T23:36:51.254Z,77.19
2018-09-21T23:39:21.070Z,77.58
2018-09-21T23:41:50.947Z,77.15
2018-09-21T23:44:20.654Z,77.38
2018-09-21T23:46:50.470Z,77.82
2018-09-21T23:49:20.234Z,77.87
2018-09-21T23:51:49.651Z,79.04
2018-09-21T23:54:19.409Z,79.15
2018-09-21T23:56:49.238Z,79.75
2018-09-21T23:59:18.998Z,80.33
